createdAt,value
2019-05-09T00:00:34.722Z,99.99
2019-05-09T00:01:34.758Z,99.99
2019-05-09T00:02:34.797Z,99.99
2019-05-09T00:03:34.841Z,99.99
2019-05-09T00:04:34.910Z,99.99
2019-05-09T00:05:34.939Z,99.99
2019-05-09T00:06:34.979Z,99.99
2019-05-09T00:07:35.038Z,99.99
2019-05-09T00:08:35.070Z,99.99
2019-05-09T00:09:35.141Z,99.99
2019-05-09T00:10:39.312Z,99.99
2019-05-09T00:11:35.205Z,99.99
2019-05-09T00:12:35.251Z,99.99
2019-05-09T00:13:35.298Z,99.99
2019-05-09T00:14:35.365Z,99.99
2019-05-09T00:15:35.401Z,99.99
2019-05-09T00:16:35.435Z,99.99
2019-05-09T00:17:35.479Z,99.99
2019-05-09T00:18:35.524Z,99.99
2019-05-09T00:19:35.603Z,99.99
2019-05-09T00:20:35.632Z,99.99
2019-05-09T00:21:35.663Z,99.99
2019-05-09T00:22:35.707Z,99.99
2019-05-09T00:23:35.758Z,99.99
2019-05-09T00:24:35.820Z,99.99
2019-05-09T00:25:35.863Z,99.99
2019-05-09T00:26:35.893Z,99.99
2019-05-09T00:27:35.939Z,99.99
2019-05-09T00:28:36.167Z,99.99
2019-05-09T00:29:36.052Z,99.99
2019-05-09T00:30:36.095Z,99.99
2019-05-09T00:31:36.119Z,99.99
2019-05-09T00:32:36.168Z,99.99
2019-05-09T00:33:36.208Z,99.99
2019-05-09T00:34:36.252Z,99.99
2019-05-09T00:35:36.334Z,99.99
2019-05-09T00:36:36.347Z,99.99
2019-05-09T00:37:36.392Z,99.99
2019-05-09T00:38:36.445Z,99.99
2019-05-09T00:39:36.488Z,99.99
2019-05-09T00:40:36.551Z,99.99
2019-05-09T00:41:36.589Z,99.99
2019-05-09T00:42:36.619Z,99.99
2019-05-09T00:43:36.667Z,99.99
2019-05-09T00:44:36.761Z,99.99
2019-05-09T00:45:36.782Z,99.99
2019-05-09T00:46:36.805Z,99.99
2019-05-09T00:47:36.849Z,99.99
2019-05-09T00:48:36.891Z,99.99
2019-05-09T00:49:36.941Z,99.99
2019-05-09T00:50:37.002Z,99.99
2019-05-09T00:51:37.055Z,99.99
2019-05-09T00:52:37.073Z,99.99
2019-05-09T00:53:37.125Z,99.99
2019-05-09T00:54:37.163Z,99.99
2019-05-09T00:55:37.239Z,99.99
2019-05-09T00:56:37.266Z,99.99
2019-05-09T00:57:37.301Z,99.99
2019-05-09T00:58:37.351Z,99.99
2019-05-09T00:59:37.404Z,99.99
2019-05-09T01:00:37.490Z,99.99
2019-05-09T01:01:37.484Z,99.99
2019-05-09T01:02:37.530Z,99.99
2019-05-09T01:03:37.573Z,99.99
2019-05-09T01:04:37.626Z,99.99
2019-05-09T01:05:37.685Z,99.99
2019-05-09T01:06:37.738Z,99.99
2019-05-09T01:07:37.767Z,99.99
2019-05-09T01:08:37.808Z,99.99
2019-05-09T01:09:37.850Z,99.99
2019-05-09T01:10:37.893Z,99.99
2019-05-09T01:11:37.977Z,99.99
2019-05-09T01:12:37.979Z,99.99
2019-05-09T01:13:38.030Z,99.99
2019-05-09T01:14:38.149Z,99.99
2019-05-09T01:15:38.116Z,99.99
2019-05-09T01:16:38.182Z,99.99
2019-05-09T01:17:38.216Z,99.99
2019-05-09T01:18:38.267Z,99.99
2019-05-09T01:19:38.299Z,99.99
2019-05-09T01:20:38.344Z,99.99
2019-05-09T01:21:38.422Z,99.99
2019-05-09T01:22:38.443Z,99.99
2019-05-09T01:23:38.481Z,99.99
2019-05-09T01:24:38.526Z,99.99
2019-05-09T01:25:38.572Z,99.99
2019-05-09T01:26:38.635Z,99.99
2019-05-09T01:27:38.677Z,99.99
2019-05-09T01:28:38.704Z,99.99
2019-05-09T01:29:38.760Z,99.99
2019-05-09T01:30:38.796Z,99.99
2019-05-09T01:31:38.847Z,99.99
2019-05-09T01:32:38.916Z,99.99
2019-05-09T01:33:38.932Z,99.99
2019-05-09T01:34:38.982Z,99.99
2019-05-09T01:35:39.022Z,99.99
2019-05-09T01:36:39.068Z,99.99
2019-05-09T01:37:39.135Z,99.99
2019-05-09T01:38:39.158Z,99.99
2019-05-09T01:39:39.268Z,99.99
2019-05-09T01:40:39.246Z,99.99
2019-05-09T01:41:39.301Z,99.99
2019-05-09T01:42:39.365Z,99.99
2019-05-09T01:43:39.382Z,99.99
2019-05-09T01:44:39.426Z,99.99
2019-05-09T01:45:39.482Z,99.99
2019-05-09T01:46:39.619Z,99.99
2019-05-09T01:47:39.586Z,99.99
2019-05-09T01:48:39.618Z,99.99
2019-05-09T01:49:39.649Z,99.99
2019-05-09T01:50:39.698Z,99.99
2019-05-09T01:51:39.741Z,99.99
2019-05-09T01:52:39.814Z,99.99
2019-05-09T01:53:39.830Z,99.99
2019-05-09T01:54:39.874Z,99.99
2019-05-09T01:55:39.921Z,99.99
2019-05-09T01:56:39.962Z,99.99
2019-05-09T01:57:40.032Z,99.99
2019-05-09T01:58:40.059Z,99.99
2019-05-09T01:59:40.097Z,99.99
2019-05-09T02:00:40.142Z,99.99
2019-05-09T02:01:40.186Z,99.99
2019-05-09T02:02:40.256Z,99.99
2019-05-09T02:03:40.300Z,99.99
2019-05-09T02:04:40.325Z,99.99
2019-05-09T02:05:40.364Z,99.99
2019-05-09T02:06:40.411Z,99.99
2019-05-09T02:07:40.458Z,99.99
2019-05-09T02:08:40.516Z,99.99
2019-05-09T02:09:40.544Z,99.99
2019-05-09T02:10:40.591Z,99.99
2019-05-09T02:11:43.343Z,99.99
2019-05-09T02:12:42.530Z,99.99
2019-05-09T02:13:40.743Z,99.99
2019-05-09T02:14:40.773Z,99.99
2019-05-09T02:15:40.812Z,99.99
2019-05-09T02:16:43.119Z,99.99
2019-05-09T02:17:54.882Z,99.99
2019-05-09T02:18:40.965Z,99.99
2019-05-09T02:19:40.988Z,99.99
2019-05-09T02:20:41.036Z,99.99
2019-05-09T02:21:41.080Z,99.99
2019-05-09T02:22:43.378Z,99.99
2019-05-09T02:23:43.096Z,99.99
2019-05-09T02:24:41.241Z,99.99
2019-05-09T02:25:41.257Z,99.99
2019-05-09T02:26:43.750Z,99.99
2019-05-09T02:27:43.505Z,99.99
2019-05-09T02:28:43.254Z,99.99
2019-05-09T02:29:41.452Z,99.99
2019-05-09T02:30:44.749Z,99.99
2019-05-09T02:31:44.584Z,99.99
2019-05-09T02:32:44.738Z,99.99
2019-05-09T02:33:45.104Z,99.99
2019-05-09T02:34:44.091Z,99.99
2019-05-09T02:35:52.893Z,99.99
2019-05-09T02:36:41.749Z,99.99
2019-05-09T02:37:41.788Z,99.99
2019-05-09T02:38:41.843Z,99.99
2019-05-09T02:39:41.902Z,99.99
2019-05-09T02:40:41.930Z,99.99
2019-05-09T02:41:59.536Z,99.99
2019-05-09T02:42:42.012Z,99.99
2019-05-09T02:43:42.056Z,99.99
2019-05-09T02:44:42.121Z,99.99
2019-05-09T02:45:42.148Z,99.99
2019-05-09T02:46:42.189Z,99.99
2019-05-09T02:47:42.235Z,99.99
2019-05-09T02:48:42.311Z,99.99
2019-05-09T02:49:42.390Z,99.99
2019-05-09T02:50:42.388Z,99.99
2019-05-09T02:51:42.407Z,99.99
2019-05-09T02:52:42.453Z,99.99
2019-05-09T02:53:42.499Z,99.99
2019-05-09T02:54:42.541Z,99.99
2019-05-09T02:55:42.715Z,99.99
2019-05-09T02:56:42.630Z,99.99
2019-05-09T02:57:42.672Z,99.99
2019-05-09T02:58:42.725Z,99.99
2019-05-09T02:59:42.764Z,99.99
2019-05-09T03:00:42.848Z,99.99
2019-05-09T03:01:42.855Z,99.99
2019-05-09T03:02:42.971Z,99.99
2019-05-09T03:03:42.938Z,99.99
2019-05-09T03:04:42.990Z,99.99
2019-05-09T03:05:43.052Z,99.99
2019-05-09T03:06:43.094Z,99.99
2019-05-09T03:07:43.113Z,99.99
2019-05-09T03:08:43.159Z,99.99
2019-05-09T03:09:43.276Z,99.99
2019-05-09T03:10:43.272Z,99.99
2019-05-09T03:11:43.291Z,99.99
2019-05-09T03:12:43.334Z,99.99
2019-05-09T03:13:43.383Z,99.99
2019-05-09T03:14:43.423Z,99.99
2019-05-09T03:15:43.486Z,99.99
2019-05-09T03:16:43.536Z,99.99
2019-05-09T03:17:43.557Z,99.99
2019-05-09T03:18:43.609Z,99.99
2019-05-09T03:19:43.644Z,99.99
2019-05-09T03:20:43.711Z,99.99
2019-05-09T03:21:43.750Z,99.99
2019-05-09T03:22:43.775Z,99.99
2019-05-09T03:23:43.818Z,99.99
2019-05-09T03:24:43.862Z,99.99
2019-05-09T03:25:43.933Z,99.99
2019-05-09T03:26:43.977Z,99.99
2019-05-09T03:27:43.999Z,99.99
2019-05-09T03:28:44.039Z,99.99
2019-05-09T03:29:44.080Z,99.99
2019-05-09T03:30:44.126Z,99.99
2019-05-09T03:31:44.193Z,99.99
2019-05-09T03:32:44.246Z,99.99
2019-05-09T03:33:44.257Z,99.99
2019-05-09T03:34:44.298Z,99.99
2019-05-09T03:35:44.343Z,99.99
2019-05-09T03:36:44.411Z,99.99
2019-05-09T03:37:44.430Z,99.99
2019-05-09T03:38:44.485Z,99.99
2019-05-09T03:39:44.533Z,99.99
2019-05-09T03:40:44.572Z,99.99
2019-05-09T03:41:44.639Z,99.99
2019-05-09T03:42:44.663Z,99.99
2019-05-09T03:43:44.690Z,99.99
2019-05-09T03:44:44.734Z,99.99
2019-05-09T03:45:44.777Z,99.99
2019-05-09T03:46:47.021Z,99.99
2019-05-09T03:47:44.866Z,99.99
2019-05-09T03:48:44.910Z,99.99
2019-05-09T03:49:44.955Z,99.99
2019-05-09T03:50:45.003Z,99.99
2019-05-09T03:51:45.063Z,99.99
2019-05-09T03:52:45.104Z,99.99
2019-05-09T03:53:45.159Z,99.99
2019-05-09T03:54:45.172Z,99.99
2019-05-09T03:55:47.267Z,99.99
2019-05-09T03:56:45.280Z,99.99
2019-05-09T03:57:47.500Z,99.99
2019-05-09T03:58:47.376Z,99.99
2019-05-09T03:59:45.388Z,99.99
2019-05-09T04:00:47.770Z,99.99
2019-05-09T04:01:47.827Z,99.99
2019-05-09T04:02:47.431Z,99.99
2019-05-09T04:03:47.977Z,99.99
2019-05-09T04:04:47.431Z,99.99
2019-05-09T04:05:56.675Z,99.99
2019-05-09T04:06:47.917Z,99.99
2019-05-09T04:07:47.661Z,99.99
2019-05-09T04:08:48.030Z,99.99
2019-05-09T04:09:47.865Z,99.99
2019-05-09T04:10:46.969Z,99.99
2019-05-09T04:11:48.349Z,99.99
2019-05-09T04:12:53.907Z,99.99
2019-05-09T04:13:47.644Z,99.99
2019-05-09T04:14:47.971Z,99.99
2019-05-09T04:15:47.709Z,99.99
2019-05-09T04:16:47.774Z,99.99
2019-05-09T04:17:47.555Z,99.99
2019-05-09T04:18:47.983Z,99.99
2019-05-09T04:19:47.928Z,99.99
2019-05-09T04:20:48.210Z,99.99
2019-05-09T04:21:48.281Z,99.99
2019-05-09T04:22:48.786Z,99.99
2019-05-09T04:23:48.073Z,99.99
2019-05-09T04:24:47.394Z,99.99
2019-05-09T04:25:47.945Z,99.99
2019-05-09T04:26:48.377Z,99.99
2019-05-09T04:27:47.999Z,99.99
2019-05-09T04:28:47.256Z,99.99
2019-05-09T04:29:48.380Z,99.99
2019-05-09T04:30:47.775Z,99.99
2019-05-09T04:31:48.310Z,99.99
2019-05-09T04:32:48.105Z,99.99
2019-05-09T04:33:47.360Z,99.99
2019-05-09T04:34:47.392Z,99.99
2019-05-09T04:35:47.574Z,99.99
2019-05-09T04:36:48.350Z,99.99
2019-05-09T04:37:48.217Z,99.99
2019-05-09T04:38:47.270Z,99.99
2019-05-09T04:39:47.659Z,99.99
2019-05-09T04:40:48.789Z,99.99
2019-05-09T04:41:48.660Z,99.99
2019-05-09T04:42:47.521Z,99.99
2019-05-09T04:43:48.697Z,99.99
2019-05-09T04:44:49.676Z,99.99
2019-05-09T04:45:47.401Z,99.99
2019-05-09T04:46:48.074Z,99.99
2019-05-09T04:47:47.465Z,99.99
2019-05-09T04:48:47.632Z,99.99
2019-05-09T04:49:47.931Z,99.99
2019-05-09T04:50:47.891Z,99.99
2019-05-09T04:51:47.932Z,99.99
2019-05-09T04:52:47.683Z,99.99
2019-05-09T04:53:48.085Z,99.99
2019-05-09T04:54:48.523Z,99.99
2019-05-09T04:55:47.990Z,99.99
2019-05-09T04:56:47.860Z,99.99
2019-05-09T04:57:48.583Z,99.99
2019-05-09T04:58:48.309Z,99.99
2019-05-09T04:59:47.986Z,99.99
2019-05-09T05:00:48.067Z,99.99
2019-05-09T05:01:48.072Z,99.99
2019-05-09T05:02:48.499Z,99.99
2019-05-09T05:03:48.180Z,99.99
2019-05-09T05:04:48.203Z,99.99
2019-05-09T05:05:48.316Z,99.99
2019-05-09T05:06:48.305Z,99.99
2019-05-09T05:07:48.342Z,99.99
2019-05-09T05:08:48.421Z,99.99
2019-05-09T05:09:48.530Z,99.99
2019-05-09T05:10:48.466Z,99.99
2019-05-09T05:11:49.060Z,99.99
2019-05-09T05:12:48.557Z,99.99
2019-05-09T05:13:48.595Z,99.99
2019-05-09T05:14:48.670Z,99.99
2019-05-09T05:15:48.686Z,99.99
2019-05-09T05:16:53.044Z,99.99
2019-05-09T05:17:48.770Z,99.99
2019-05-09T05:18:48.816Z,99.99
2019-05-09T05:19:48.896Z,99.99
2019-05-09T05:20:48.903Z,99.99
2019-05-09T05:21:48.967Z,99.99
2019-05-09T05:22:49.000Z,99.99
2019-05-09T05:23:49.035Z,99.99
2019-05-09T05:24:49.111Z,99.99
2019-05-09T05:25:49.122Z,99.99
2019-05-09T05:26:49.173Z,99.99
2019-05-09T05:27:49.214Z,99.99
2019-05-09T05:28:49.258Z,99.99
2019-05-09T05:29:49.319Z,99.99
2019-05-09T05:30:49.349Z,99.99
2019-05-09T05:31:49.386Z,99.99
2019-05-09T05:32:49.433Z,99.99
2019-05-09T05:33:53.624Z,99.99
2019-05-09T05:34:49.555Z,99.99
2019-05-09T05:35:49.565Z,99.99
2019-05-09T05:36:49.608Z,99.99
2019-05-09T05:37:49.664Z,99.99
2019-05-09T05:38:49.705Z,99.99
2019-05-09T05:39:49.767Z,99.99
2019-05-09T05:40:49.954Z,99.99
2019-05-09T05:41:49.839Z,99.99
2019-05-09T05:42:49.903Z,99.99
2019-05-09T05:43:49.941Z,99.99
2019-05-09T05:44:49.987Z,99.99
2019-05-09T05:45:50.016Z,99.99
2019-05-09T05:46:50.820Z,99.99
2019-05-09T05:47:50.097Z,99.99
2019-05-09T05:48:50.147Z,99.99
2019-05-09T05:49:50.224Z,99.99
2019-05-09T05:50:50.230Z,99.99
2019-05-09T05:51:50.281Z,99.99
2019-05-09T05:52:50.320Z,99.99
2019-05-09T05:53:50.399Z,99.99
2019-05-09T05:54:50.418Z,99.99
2019-05-09T05:55:52.633Z,99.99
2019-05-09T05:56:50.502Z,99.99
2019-05-09T05:57:50.546Z,99.99
2019-05-09T05:58:50.620Z,99.99
2019-05-09T05:59:50.650Z,99.99
2019-05-09T06:00:50.701Z,99.99
2019-05-09T06:01:50.732Z,99.99
2019-05-09T06:02:50.773Z,99.99
2019-05-09T06:03:50.822Z,99.99
2019-05-09T06:04:50.867Z,99.99
2019-05-09T06:05:51.754Z,99.99
2019-05-09T06:06:50.951Z,99.99
2019-05-09T06:07:51.002Z,99.99
2019-05-09T06:08:51.063Z,99.99
2019-05-09T06:09:51.085Z,99.99
2019-05-09T06:10:51.148Z,99.99
2019-05-09T06:11:51.176Z,99.99
2019-05-09T06:12:51.259Z,99.99
2019-05-09T06:13:56.400Z,99.99
2019-05-09T06:14:51.312Z,99.99
2019-05-09T06:15:51.374Z,99.99
2019-05-09T06:16:51.403Z,99.99
2019-05-09T06:17:51.448Z,99.99
2019-05-09T06:18:51.558Z,99.99
2019-05-09T06:19:51.553Z,99.99
2019-05-09T06:20:51.613Z,99.99
2019-05-09T06:21:52.383Z,99.99
2019-05-09T06:22:51.672Z,99.99
2019-05-09T06:23:51.721Z,99.99
2019-05-09T06:24:51.765Z,99.99
2019-05-09T06:25:51.834Z,99.99
2019-05-09T06:26:51.896Z,99.99
2019-05-09T06:27:51.902Z,99.99
2019-05-09T06:28:51.949Z,99.99
2019-05-09T06:29:51.999Z,99.99
2019-05-09T06:30:52.053Z,99.99
2019-05-09T06:31:52.100Z,99.99
2019-05-09T06:32:52.134Z,99.99
2019-05-09T06:33:53.548Z,99.99
2019-05-09T06:34:52.226Z,99.99
2019-05-09T06:35:52.274Z,99.99
2019-05-09T06:36:52.339Z,99.99
2019-05-09T06:37:52.368Z,99.99
2019-05-09T06:38:52.546Z,99.99
2019-05-09T06:39:52.454Z,99.99
2019-05-09T06:40:52.502Z,99.99
2019-05-09T06:41:52.565Z,99.99
2019-05-09T06:42:52.596Z,99.99
2019-05-09T06:43:52.641Z,99.99
2019-05-09T06:44:52.689Z,99.99
2019-05-09T06:45:52.739Z,99.99
2019-05-09T06:46:52.801Z,96.89
2019-05-09T06:47:52.835Z,94.46
2019-05-09T06:48:52.892Z,92.97
2019-05-09T06:49:52.927Z,91.53
2019-05-09T06:50:52.975Z,93.40
2019-05-09T06:51:53.107Z,92.06
2019-05-09T06:52:53.061Z,91.68
2019-05-09T06:53:53.132Z,89.14
2019-05-09T06:54:53.159Z,88.08
2019-05-09T06:55:53.221Z,86.40
2019-05-09T06:56:53.281Z,85.44
2019-05-09T06:57:53.309Z,82.18
2019-05-09T06:58:53.353Z,80.74
2019-05-09T06:59:53.407Z,81.31
2019-05-09T07:00:53.447Z,82.82
2019-05-09T07:01:53.517Z,85.21
2019-05-09T07:02:57.129Z,85.88
2019-05-09T07:03:53.602Z,87.99
2019-05-09T07:04:53.649Z,88.37
2019-05-09T07:05:53.694Z,86.88
2019-05-09T07:06:53.758Z,87.02
2019-05-09T07:07:53.857Z,86.36
2019-05-09T07:08:53.839Z,88.42
2019-05-09T07:09:53.887Z,88.03
2019-05-09T07:10:53.946Z,85.54
2019-05-09T07:11:54.004Z,87.27
2019-05-09T07:12:54.080Z,87.65
2019-05-09T07:13:54.087Z,89.04
2019-05-09T07:14:54.134Z,88.56
2019-05-09T07:15:54.181Z,89.14
2019-05-09T07:16:54.238Z,88.28
2019-05-09T07:17:54.323Z,89.95
2019-05-09T07:18:54.332Z,89.05
2019-05-09T07:19:54.391Z,91.06
2019-05-09T07:20:54.440Z,96.42
2019-05-09T07:21:54.724Z,99.14
2019-05-09T07:22:54.548Z,99.14
2019-05-09T07:23:54.579Z,99.99
2019-05-09T07:24:57.902Z,99.99
2019-05-09T07:25:54.675Z,99.99
2019-05-09T07:26:54.726Z,99.99
2019-05-09T07:27:54.794Z,99.99
2019-05-09T07:28:54.823Z,99.99
2019-05-09T07:29:54.904Z,99.99
2019-05-09T07:30:57.224Z,99.99
2019-05-09T07:31:57.217Z,99.99
2019-05-09T07:32:55.041Z,99.99
2019-05-09T07:33:55.067Z,99.99
2019-05-09T07:34:55.116Z,99.99
2019-05-09T07:35:55.164Z,99.99
2019-05-09T07:36:55.236Z,99.99
2019-05-09T07:37:57.605Z,99.99
2019-05-09T07:38:55.321Z,99.99
2019-05-09T07:39:57.647Z,99.99
2019-05-09T07:40:57.918Z,99.99
2019-05-09T07:41:55.461Z,99.99
2019-05-09T07:42:56.102Z,99.99
2019-05-09T07:43:58.080Z,99.99
2019-05-09T07:44:55.602Z,99.99
2019-05-09T07:45:57.951Z,99.47
2019-05-09T07:46:57.913Z,99.37
2019-05-09T07:47:58.174Z,99.99
2019-05-09T07:48:57.749Z,99.99
2019-05-09T07:49:58.376Z,99.99
2019-05-09T07:50:59.474Z,99.99
2019-05-09T07:51:58.271Z,99.99
2019-05-09T07:52:57.950Z,99.99
2019-05-09T07:53:58.678Z,99.99
2019-05-09T07:54:58.057Z,99.99
2019-05-09T07:55:58.072Z,99.99
2019-05-09T07:56:58.033Z,99.99
2019-05-09T07:57:58.764Z,99.99
2019-05-09T07:58:58.288Z,99.99
2019-05-09T07:59:58.281Z,99.99
2019-05-09T08:01:00.743Z,99.99
2019-05-09T08:01:58.112Z,99.08
2019-05-09T08:02:58.080Z,99.47
2019-05-09T08:03:58.432Z,99.99
2019-05-09T08:04:57.951Z,99.76
2019-05-09T08:05:57.955Z,97.75
2019-05-09T08:06:57.737Z,97.85
2019-05-09T08:07:58.574Z,98.42
2019-05-09T08:08:58.163Z,98.71
2019-05-09T08:09:57.912Z,98.23
2019-05-09T08:10:58.461Z,98.75
2019-05-09T08:11:58.819Z,99.14
2019-05-09T08:12:58.583Z,99.99
2019-05-09T08:13:57.559Z,99.99
2019-05-09T08:15:10.258Z,98.57
2019-05-09T08:15:58.503Z,94.46
2019-05-09T08:16:58.108Z,91.78
2019-05-09T08:17:59.036Z,91.30
2019-05-09T08:18:57.788Z,90.92
2019-05-09T08:19:58.346Z,90.58
2019-05-09T08:20:57.963Z,89.43
2019-05-09T08:21:57.712Z,88.85
2019-05-09T08:23:01.356Z,89.95
2019-05-09T08:23:58.023Z,89.90
2019-05-09T08:24:57.673Z,89.90
2019-05-09T08:25:58.036Z,86.94
2019-05-09T08:26:58.183Z,86.04
2019-05-09T08:27:58.779Z,87.47
2019-05-09T08:28:58.450Z,87.56
2019-05-09T08:29:58.399Z,88.81
2019-05-09T08:30:58.504Z,88.90
2019-05-09T08:31:58.461Z,89.19
2019-05-09T08:32:59.962Z,87.46
2019-05-09T08:33:59.302Z,85.72
2019-05-09T08:34:58.063Z,82.51
2019-05-09T08:35:58.610Z,81.93
2019-05-09T08:36:58.337Z,84.71
2019-05-09T08:37:58.552Z,85.58
2019-05-09T08:38:58.866Z,84.77
2019-05-09T08:39:58.308Z,83.61
2019-05-09T08:40:58.875Z,85.58
2019-05-09T08:41:59.208Z,88.90
2019-05-09T08:42:58.997Z,89.28
2019-05-09T08:43:58.505Z,88.95
2019-05-09T08:44:58.573Z,92.11
2019-05-09T08:45:58.689Z,93.59
2019-05-09T08:46:58.643Z,93.55
2019-05-09T08:47:58.700Z,94.98
2019-05-09T08:48:58.742Z,94.65
2019-05-09T08:49:58.916Z,96.18
2019-05-09T08:50:58.846Z,97.42
2019-05-09T08:52:12.001Z,97.13
2019-05-09T08:52:58.945Z,99.71
2019-05-09T08:53:59.001Z,99.62
2019-05-09T08:54:59.073Z,99.90
2019-05-09T08:55:59.107Z,99.99
2019-05-09T08:56:59.196Z,99.19
2019-05-09T08:57:59.197Z,99.28
2019-05-09T08:59:01.978Z,99.99
2019-05-09T08:59:59.329Z,99.99
2019-05-09T09:01:03.635Z,99.99
2019-05-09T09:02:12.281Z,99.99
2019-05-09T09:02:59.453Z,99.99
2019-05-09T09:03:59.570Z,99.99
2019-05-09T09:04:59.562Z,99.99
2019-05-09T09:05:59.610Z,99.57
2019-05-09T09:06:59.641Z,99.66
2019-05-09T09:07:59.700Z,99.99
2019-05-09T09:08:59.743Z,99.99
2019-05-09T09:09:59.801Z,97.94
2019-05-09T09:10:59.899Z,97.56
2019-05-09T09:11:59.897Z,96.80
2019-05-09T09:12:59.936Z,95.41
2019-05-09T09:13:59.997Z,96.27
2019-05-09T09:15:00.064Z,95.41
2019-05-09T09:16:14.355Z,96.46
2019-05-09T09:17:00.146Z,99.66
2019-05-09T09:18:00.185Z,99.99
2019-05-09T09:19:00.232Z,99.99
2019-05-09T09:20:00.285Z,99.99
2019-05-09T09:21:00.372Z,99.99
2019-05-09T09:22:00.718Z,99.99
2019-05-09T09:23:00.445Z,99.99
2019-05-09T09:24:00.479Z,99.99
2019-05-09T09:25:00.543Z,98.99
2019-05-09T09:26:00.608Z,99.99
2019-05-09T09:27:00.623Z,99.99
2019-05-09T09:28:00.671Z,99.99
2019-05-09T09:29:00.724Z,99.99
2019-05-09T09:30:16.822Z,99.99
2019-05-09T09:31:00.938Z,99.99
2019-05-09T09:32:00.884Z,99.99
2019-05-09T09:33:00.915Z,99.99
2019-05-09T09:34:00.958Z,99.99
2019-05-09T09:35:01.009Z,99.99
2019-05-09T09:36:01.057Z,99.99
2019-05-09T09:37:03.748Z,99.99
2019-05-09T09:38:01.168Z,99.99
2019-05-09T09:39:02.957Z,99.99
2019-05-09T09:40:01.250Z,99.99
2019-05-09T09:41:01.298Z,99.99
2019-05-09T09:42:01.375Z,99.99
2019-05-09T09:43:01.398Z,99.99
2019-05-09T09:44:01.460Z,99.99
2019-05-09T09:45:01.514Z,99.99
2019-05-09T09:46:10.568Z,99.99
2019-05-09T09:47:01.617Z,99.99
2019-05-09T09:48:01.651Z,99.99
2019-05-09T09:49:01.689Z,99.99
2019-05-09T09:50:01.770Z,99.99
2019-05-09T09:51:01.793Z,99.99
2019-05-09T09:52:01.857Z,99.99
2019-05-09T09:53:01.883Z,99.99
2019-05-09T09:54:01.938Z,99.99
2019-05-09T09:55:01.979Z,99.99
2019-05-09T09:56:02.121Z,99.99
2019-05-09T09:57:02.109Z,99.99
2019-05-09T09:58:02.134Z,99.99
2019-05-09T09:59:02.170Z,99.99
2019-05-09T10:00:02.227Z,99.99
2019-05-09T10:01:03.568Z,99.99
2019-05-09T10:02:02.361Z,99.99
2019-05-09T10:03:02.514Z,99.99
2019-05-09T10:04:15.710Z,99.99
2019-05-09T10:05:02.480Z,99.99
2019-05-09T10:06:02.531Z,99.99
2019-05-09T10:07:02.588Z,99.99
2019-05-09T10:08:02.650Z,99.99
2019-05-09T10:09:02.669Z,99.99
2019-05-09T10:10:02.729Z,99.99
2019-05-09T10:11:02.763Z,99.99
2019-05-09T10:12:02.845Z,99.99
2019-05-09T10:13:04.189Z,99.99
2019-05-09T10:14:02.907Z,99.99
2019-05-09T10:15:02.963Z,99.99
2019-05-09T10:16:03.007Z,98.85
2019-05-09T10:17:03.171Z,99.99
2019-05-09T10:18:03.132Z,99.99
2019-05-09T10:19:03.167Z,99.99
2019-05-09T10:20:03.214Z,99.99
2019-05-09T10:21:03.255Z,98.66
2019-05-09T10:22:03.308Z,99.24
2019-05-09T10:23:14.982Z,98.71
2019-05-09T10:24:03.425Z,97.90
2019-05-09T10:25:03.454Z,98.66
2019-05-09T10:26:03.513Z,99.00
2019-05-09T10:27:03.549Z,95.07
2019-05-09T10:28:03.618Z,91.49
2019-05-09T10:29:03.650Z,95.75
2019-05-09T10:30:03.708Z,96.51
2019-05-09T10:31:03.763Z,90.23
2019-05-09T10:32:03.800Z,89.57
2019-05-09T10:33:03.877Z,85.54
2019-05-09T10:34:03.898Z,82.71
2019-05-09T10:35:03.977Z,85.25
2019-05-09T10:36:04.956Z,84.38
2019-05-09T10:37:04.047Z,79.36
2019-05-09T10:38:04.135Z,79.16
2019-05-09T10:39:04.170Z,77.94
2019-05-09T10:40:04.213Z,81.10
2019-05-09T10:41:04.282Z,82.82
2019-05-09T10:42:04.301Z,83.20
2019-05-09T10:43:04.361Z,82.29
2019-05-09T10:44:04.725Z,83.86
2019-05-09T10:45:04.463Z,81.66
2019-05-09T10:46:04.502Z,81.79
2019-05-09T10:47:04.557Z,78.05
2019-05-09T10:48:04.612Z,77.76
2019-05-09T10:49:04.677Z,77.00
2019-05-09T10:50:04.716Z,76.32
2019-05-09T10:51:06.366Z,74.85
2019-05-09T10:52:04.821Z,75.90
2019-05-09T10:53:07.816Z,77.34
2019-05-09T10:54:04.935Z,78.27
2019-05-09T10:55:04.963Z,80.64
2019-05-09T10:56:05.022Z,81.54
2019-05-09T10:57:05.077Z,77.90
2019-05-09T10:58:07.840Z,79.76
2019-05-09T10:59:07.578Z,81.43
2019-05-09T11:00:05.296Z,76.96
2019-05-09T11:01:08.884Z,77.11
2019-05-09T11:02:05.416Z,72.97
2019-05-09T11:03:05.378Z,74.85
2019-05-09T11:04:07.919Z,75.58
2019-05-09T11:05:08.209Z,74.62
2019-05-09T11:06:05.538Z,74.05
2019-05-09T11:07:07.917Z,75.29
2019-05-09T11:08:08.036Z,76.10
2019-05-09T11:09:08.412Z,77.19
2019-05-09T11:10:23.636Z,78.28
2019-05-09T11:11:08.629Z,75.73
2019-05-09T11:12:07.861Z,74.39
2019-05-09T11:13:07.549Z,74.73
2019-05-09T11:14:08.305Z,77.38
2019-05-09T11:15:08.968Z,77.76
2019-05-09T11:16:07.700Z,75.70
2019-05-09T11:17:14.138Z,76.12
2019-05-09T11:18:08.165Z,74.64
2019-05-09T11:19:07.979Z,75.31
2019-05-09T11:20:08.683Z,74.41
2019-05-09T11:21:08.471Z,73.77
2019-05-09T11:22:08.113Z,73.26
2019-05-09T11:23:08.108Z,73.30
2019-05-09T11:24:08.340Z,74.44
2019-05-09T11:25:08.627Z,72.37
2019-05-09T11:26:06.572Z,71.55
2019-05-09T11:27:08.537Z,68.60
2019-05-09T11:28:12.594Z,72.58
2019-05-09T11:29:07.962Z,67.29
2019-05-09T11:30:08.331Z,70.78
2019-05-09T11:31:08.165Z,69.21
2019-05-09T11:32:08.092Z,69.91
2019-05-09T11:33:07.820Z,71.03
2019-05-09T11:34:08.891Z,70.45
2019-05-09T11:35:08.970Z,70.55
2019-05-09T11:36:09.741Z,70.55
2019-05-09T11:37:08.460Z,68.40
2019-05-09T11:38:08.414Z,70.70
2019-05-09T11:39:10.723Z,69.90
2019-05-09T11:40:07.302Z,71.09
2019-05-09T11:41:08.298Z,71.51
2019-05-09T11:42:07.430Z,71.03
2019-05-09T11:43:07.540Z,72.22
2019-05-09T11:44:08.485Z,69.53
2019-05-09T11:45:07.837Z,70.68
2019-05-09T11:46:10.270Z,71.35
2019-05-09T11:47:23.986Z,72.06
2019-05-09T11:48:08.311Z,70.11
2019-05-09T11:49:08.525Z,67.74
2019-05-09T11:50:08.839Z,69.43
2019-05-09T11:51:09.028Z,69.81
2019-05-09T11:52:08.431Z,70.29
2019-05-09T11:53:08.860Z,70.01
2019-05-09T11:54:09.179Z,71.42
2019-05-09T11:55:27.152Z,69.46
2019-05-09T11:56:08.363Z,68.18
2019-05-09T11:57:08.215Z,68.05
2019-05-09T11:58:08.557Z,69.68
2019-05-09T11:59:08.329Z,70.26
2019-05-09T12:00:08.471Z,70.93
2019-05-09T12:01:08.447Z,69.87
2019-05-09T12:02:09.012Z,72.06
2019-05-09T12:03:09.084Z,68.70
2019-05-09T12:04:08.585Z,66.84
2019-05-09T12:05:08.929Z,67.80
2019-05-09T12:06:08.718Z,68.57
2019-05-09T12:07:08.745Z,67.92
2019-05-09T12:08:08.856Z,70.23
2019-05-09T12:09:09.010Z,73.39
2019-05-09T12:10:08.917Z,74.01
2019-05-09T12:11:08.993Z,71.31
2019-05-09T12:12:09.010Z,70.51
2019-05-09T12:13:09.066Z,70.42
2019-05-09T12:14:09.147Z,70.03
2019-05-09T12:15:09.172Z,70.70
2019-05-09T12:16:09.262Z,74.93
2019-05-09T12:17:09.277Z,72.81
2019-05-09T12:18:11.592Z,70.76
2019-05-09T12:19:09.382Z,70.61
2019-05-09T12:20:13.309Z,70.32
2019-05-09T12:21:09.504Z,70.99
2019-05-09T12:22:09.589Z,71.19
2019-05-09T12:23:09.627Z,71.47
2019-05-09T12:24:09.680Z,73.77
2019-05-09T12:25:09.695Z,74.73
2019-05-09T12:26:09.746Z,75.37
2019-05-09T12:27:09.831Z,74.98
2019-05-09T12:28:09.850Z,75.37
2019-05-09T12:29:09.907Z,79.68
2019-05-09T12:30:09.961Z,81.98
2019-05-09T12:31:10.009Z,83.76
2019-05-09T12:32:10.077Z,85.45
2019-05-09T12:33:10.121Z,85.45
2019-05-09T12:34:10.216Z,86.74
2019-05-09T12:35:10.214Z,89.38
2019-05-09T12:36:10.260Z,94.55
2019-05-09T12:37:10.330Z,99.96
2019-05-09T12:38:10.366Z,97.08
2019-05-09T12:39:10.418Z,99.10
2019-05-09T12:40:10.468Z,99.99
2019-05-09T12:41:10.537Z,99.99
2019-05-09T12:42:10.594Z,99.99
2019-05-09T12:43:10.617Z,99.99
2019-05-09T12:44:10.672Z,99.99
2019-05-09T12:45:10.718Z,99.99
2019-05-09T12:46:10.769Z,99.99
2019-05-09T12:47:10.895Z,98.48
2019-05-09T12:48:15.366Z,98.19
2019-05-09T12:49:10.938Z,92.72
2019-05-09T12:50:10.993Z,95.98
2019-05-09T12:51:11.027Z,90.42
2019-05-09T12:52:11.116Z,96.89
2019-05-09T12:53:11.130Z,92.39